Time;durP1;ratioP1;P1;durP2;ratioP2;P2;SDS_P1;SDS_P2;PMS_P1;PMS_P2;Temp;Humidity;BMP_temperature;BMP_pressure;BME280_temperature;BME280_humidity;BME280_pressure;Samples;Min_cycle;Max_cycle;Signal;HPM_P1;HPM_P2
2022/01/29 00:00:02;;;;;;;15.17;8.27;;;;;;;;;;5052348;28;20170;-80
2022/01/29 00:02:28;;;;;;;13.93;8.53;;;;;;;;;;5035250;28;20182;-80
2022/01/29 00:05:00;;;;;;;15.93;8.63;;;;;;;;;;5036147;28;20179;-81
2022/01/29 00:07:26;;;;;;;15.27;8.33;;;;;;;;;;5035841;28;20198;-79
2022/01/29 00:10:00;;;;;;;16.80;9.10;;;;;;;;;;5035127;28;20177;-79
2022/01/29 00:12:26;;;;;;;15.00;8.87;;;;;;;;;;5051929;28;20185;-80
2022/01/29 00:14:52;;;;;;;13.23;8.67;;;;;;;;;;5034662;28;20187;-80
2022/01/29 00:17:18;;;;;;;14.00;8.30;;;;;;;;;;5035084;28;20542;-80
2022/01/29 00:19:44;;;;;;;15.37;9.30;;;;;;;;;;5051408;28;20237;-80
2022/01/29 00:22:10;;;;;;;14.33;8.90;;;;;;;;;;5034857;28;20549;-80
2022/01/29 00:24:36;;;;;;;19.27;9.47;;;;;;;;;;5037908;28;20193;-80
2022/01/29 00:27:08;;;;;;;15.13;8.97;;;;;;;;;;5038798;28;20202;-80
2022/01/29 00:29:34;;;;;;;16.20;9.07;;;;;;;;;;5039672;28;20675;-81
2022/01/29 00:32:00;;;;;;;16.03;9.03;;;;;;;;;;5055356;28;20266;-79
2022/01/29 00:34:26;;;;;;;14.73;9.07;;;;;;;;;;5054982;28;20179;-80
2022/01/29 00:36:52;;;;;;;14.70;8.90;;;;;;;;;;5038355;28;21205;-80
2022/01/29 00:39:18;;;;;;;16.00;9.07;;;;;;;;;;5038893;28;20256;-79
2022/01/29 00:41:44;;;;;;;14.03;8.93;;;;;;;;;;5055527;28;20186;-80
2022/01/29 00:44:10;;;;;;;17.03;9.60;;;;;;;;;;5038363;28;20180;-80
2022/01/29 00:46:41;;;;;;;16.97;9.40;;;;;;;;;;5054411;28;20194;-80
2022/01/29 00:49:07;;;;;;;13.97;9.40;;;;;;;;;;5038519;28;20182;-79
2022/01/29 00:51:33;;;;;;;16.33;9.23;;;;;;;;;;5037845;28;20187;-79
2022/01/29 00:53:59;;;;;;;13.70;9.97;;;;;;;;;;5037684;28;20192;-79
2022/01/29 00:56:25;;;;;;;13.93;9.00;;;;;;;;;;5054198;28;20241;-79
2022/01/29 00:58:51;;;;;;;16.73;9.40;;;;;;;;;;5053834;28;20651;-79
2022/01/29 01:01:17;;;;;;;16.33;9.17;;;;;;;;;;5037294;28;20196;-79
2022/01/29 01:03:43;;;;;;;16.43;9.53;;;;;;;;;;5053719;28;20178;-79
2022/01/29 01:06:09;;;;;;;16.10;10.27;;;;;;;;;;5053608;28;20237;-79
2022/01/29 01:08:35;;;;;;;15.43;9.27;;;;;;;;;;5037518;28;20534;-79
2022/01/29 01:11:02;;;;;;;15.40;9.43;;;;;;;;;;5053934;28;20272;-80
2022/01/29 01:13:29;;;;;;;15.33;9.70;;;;;;;;;;5053480;28;20186;-79
2022/01/29 01:15:55;;;;;;;16.77;9.90;;;;;;;;;;5037099;28;20204;-79
2022/01/29 01:18:21;;;;;;;16.73;9.93;;;;;;;;;;5037116;28;20206;-79
2022/01/29 01:20:47;;;;;;;18.70;10.70;;;;;;;;;;5053949;28;20174;-79
2022/01/29 01:23:13;;;;;;;18.90;10.53;;;;;;;;;;5037448;28;20206;-79
2022/01/29 01:25:39;;;;;;;17.80;10.33;;;;;;;;;;5053556;28;20668;-79
2022/01/29 01:28:05;;;;;;;18.33;10.93;;;;;;;;;;5037464;28;20182;-79
2022/01/29 01:30:32;;;;;;;17.57;10.13;;;;;;;;;;5053333;28;20265;-79
2022/01/29 01:33:00;;;;;;;19.00;10.23;;;;;;;;;;5036920;28;20186;-79
2022/01/29 01:35:32;;;;;;;19.87;10.47;;;;;;;;;;5036269;28;20203;-79
2022/01/29 01:38:08;;;;;;;16.63;10.40;;;;;;;;;;5053937;28;20198;-79
2022/01/29 01:40:34;;;;;;;21.33;11.13;;;;;;;;;;5038684;28;20652;-79
2022/01/29 01:43:01;;;;;;;20.83;10.43;;;;;;;;;;5055013;28;20170;-79
2022/01/29 01:45:27;;;;;;;18.93;9.60;;;;;;;;;;5053547;28;20219;-79
2022/01/29 01:47:55;;;;;;;19.97;11.40;;;;;;;;;;5053921;28;20470;-79
2022/01/29 01:50:21;;;;;;;17.80;11.70;;;;;;;;;;5053723;28;20181;-79
2022/01/29 01:52:48;;;;;;;18.27;11.17;;;;;;;;;;5053700;28;20223;-79
2022/01/29 01:55:14;;;;;;;19.63;10.93;;;;;;;;;;5052998;28;20179;-79
2022/01/29 01:57:40;;;;;;;22.03;12.47;;;;;;;;;;5053278;28;20323;-79
2022/01/29 02:00:07;;;;;;;22.37;10.90;;;;;;;;;;5036538;28;20212;-80
2022/01/29 02:02:33;;;;;;;20.03;11.47;;;;;;;;;;5053641;28;20183;-79
2022/01/29 02:04:59;;;;;;;20.03;11.53;;;;;;;;;;5036172;28;20185;-79
2022/01/29 02:07:25;;;;;;;21.67;11.57;;;;;;;;;;5079074;22;20226;-80
2022/01/29 02:09:51;;;;;;;19.23;11.17;;;;;;;;;;5073693;28;20279;-80
2022/01/29 02:12:17;;;;;;;24.87;11.43;;;;;;;;;;5055738;28;20206;-80
2022/01/29 02:14:45;;;;;;;21.87;11.50;;;;;;;;;;5038980;28;20273;-80
2022/01/29 02:17:11;;;;;;;20.67;11.43;;;;;;;;;;5055882;28;20194;-80
2022/01/29 02:19:37;;;;;;;21.53;11.60;;;;;;;;;;5039512;28;20199;-79
2022/01/29 02:22:04;;;;;;;20.50;10.80;;;;;;;;;;5055880;28;20656;-80
2022/01/29 02:24:30;;;;;;;20.07;10.33;;;;;;;;;;5055805;28;20174;-80
2022/01/29 02:26:56;;;;;;;20.40;11.60;;;;;;;;;;5055572;28;20203;-79
2022/01/29 02:29:22;;;;;;;19.73;10.83;;;;;;;;;;5039039;28;20282;-79
2022/01/29 02:31:55;;;;;;;20.57;11.60;;;;;;;;;;5073337;28;20176;-80
2022/01/29 02:34:22;;;;;;;21.47;11.90;;;;;;;;;;5055764;28;20233;-80
2022/01/29 02:36:48;;;;;;;22.87;12.10;;;;;;;;;;5055336;28;20233;-80
2022/01/29 02:39:16;;;;;;;18.87;10.97;;;;;;;;;;5039020;28;20252;-79
2022/01/29 02:41:44;;;;;;;18.87;11.23;;;;;;;;;;5055309;28;20186;-79
2022/01/29 02:44:14;;;;;;;23.73;11.20;;;;;;;;;;5054837;28;20178;-80
2022/01/29 02:49:09;;;;;;;20.63;11.83;;;;;;;;;;5055929;28;20211;-79
2022/01/29 02:51:35;;;;;;;18.40;10.90;;;;;;;;;;5075101;28;20248;-80
2022/01/29 02:54:01;;;;;;;21.50;11.40;;;;;;;;;;5038770;28;20210;-79
2022/01/29 02:56:27;;;;;;;20.00;11.63;;;;;;;;;;5055213;28;20680;-79
2022/01/29 02:58:53;;;;;;;20.37;12.23;;;;;;;;;;5038918;28;20218;-79
2022/01/29 03:01:19;;;;;;;20.33;12.20;;;;;;;;;;5055845;28;20174;-79
2022/01/29 03:03:45;;;;;;;21.03;11.93;;;;;;;;;;5054828;28;20667;-79
2022/01/29 03:06:11;;;;;;;19.73;11.37;;;;;;;;;;5054980;28;20237;-79
2022/01/29 03:08:38;;;;;;;23.27;11.40;;;;;;;;;;5038343;28;20551;-79
2022/01/29 03:11:04;;;;;;;20.47;12.27;;;;;;;;;;5054880;28;20661;-80
2022/01/29 03:13:31;;;;;;;18.73;11.10;;;;;;;;;;5055120;28;20181;-79
2022/01/29 03:15:57;;;;;;;23.40;11.87;;;;;;;;;;5054957;28;20207;-79
2022/01/29 03:18:23;;;;;;;21.47;11.43;;;;;;;;;;5054602;28;20575;-79
2022/01/29 03:20:49;;;;;;;22.83;11.80;;;;;;;;;;5072914;28;20697;-79
2022/01/29 03:23:15;;;;;;;22.90;11.27;;;;;;;;;;5037996;28;20217;-79
2022/01/29 03:25:41;;;;;;;23.00;11.67;;;;;;;;;;5038442;28;20272;-79
2022/01/29 03:28:07;;;;;;;19.23;10.67;;;;;;;;;;5054904;28;20175;-79
2022/01/29 03:30:34;;;;;;;19.03;11.33;;;;;;;;;;5054990;28;20217;-79
2022/01/29 03:33:00;;;;;;;18.80;10.67;;;;;;;;;;5054854;28;20174;-79
2022/01/29 03:35:25;;;;;;;19.80;11.07;;;;;;;;;;5038385;28;20663;-79
2022/01/29 03:37:52;;;;;;;18.57;11.10;;;;;;;;;;5038050;28;20206;-79
2022/01/29 03:40:18;;;;;;;19.70;11.00;;;;;;;;;;5038102;28;20175;-79
2022/01/29 03:42:59;;;;;;;20.97;10.60;;;;;;;;;;5054884;28;20669;-79
2022/01/29 03:45:25;;;;;;;18.67;9.53;;;;;;;;;;5039922;28;20188;-79
2022/01/29 03:47:51;;;;;;;21.37;11.10;;;;;;;;;;5037799;28;20183;-79
2022/01/29 03:50:17;;;;;;;17.37;10.63;;;;;;;;;;5038501;28;20189;-79
2022/01/29 03:52:43;;;;;;;20.10;10.83;;;;;;;;;;5038018;28;20232;-79
2022/01/29 03:55:09;;;;;;;21.60;10.53;;;;;;;;;;5054564;28;20211;-79
2022/01/29 03:57:35;;;;;;;22.60;11.50;;;;;;;;;;5038333;28;20572;-79
2022/01/29 04:00:02;;;;;;;21.47;10.67;;;;;;;;;;5041976;28;20187;-80
2022/01/29 04:02:28;;;;;;;19.27;10.47;;;;;;;;;;5058822;28;20178;-79
2022/01/29 04:04:54;;;;;;;19.87;10.77;;;;;;;;;;5041810;28;20181;-79
2022/01/29 04:07:20;;;;;;;19.50;10.77;;;;;;;;;;5041976;28;20222;-79
2022/01/29 04:09:49;;;;;;;20.10;10.80;;;;;;;;;;5042111;28;20199;-79
2022/01/29 04:12:16;;;;;;;18.77;9.80;;;;;;;;;;5042599;28;20182;-80
2022/01/29 04:14:42;;;;;;;20.60;10.07;;;;;;;;;;5075807;28;20244;-79
2022/01/29 04:17:08;;;;;;;21.57;10.33;;;;;;;;;;5041293;28;20203;-79
2022/01/29 04:19:35;;;;;;;18.63;10.50;;;;;;;;;;5075992;28;20190;-79
2022/01/29 04:22:02;;;;;;;16.63;9.90;;;;;;;;;;5058576;28;20178;-79
2022/01/29 04:24:28;;;;;;;17.73;9.97;;;;;;;;;;5058157;28;20577;-79
2022/01/29 04:26:54;;;;;;;17.63;9.97;;;;;;;;;;5058144;28;20217;-79
2022/01/29 04:29:20;;;;;;;19.63;10.83;;;;;;;;;;5057852;28;20179;-79
2022/01/29 04:32:44;;;;;;;19.57;10.23;;;;;;;;;;5041618;28;20271;-80
2022/01/29 04:34:36;;;;;;;18.70;10.20;;;;;;;;;;5055613;28;20190;-80
2022/01/29 04:37:02;;;;;;;18.10;9.93;;;;;;;;;;5058081;28;20319;-81
2022/01/29 04:39:28;;;;;;;17.90;10.20;;;;;;;;;;5057816;28;20220;-80
2022/01/29 04:41:54;;;;;;;16.20;9.43;;;;;;;;;;5057777;28;20176;-80
2022/01/29 04:44:20;;;;;;;18.73;10.70;;;;;;;;;;5041054;28;20193;-79
2022/01/29 04:46:46;;;;;;;17.10;9.43;;;;;;;;;;5057406;28;20195;-79
2022/01/29 04:49:12;;;;;;;15.53;9.37;;;;;;;;;;5041066;28;20183;-79
2022/01/29 04:51:38;;;;;;;19.40;10.00;;;;;;;;;;5057611;28;20185;-79
2022/01/29 04:54:04;;;;;;;17.73;9.27;;;;;;;;;;5040757;28;20187;-79
2022/01/29 04:56:30;;;;;;;17.50;9.93;;;;;;;;;;5040987;28;20249;-79
2022/01/29 04:58:56;;;;;;;18.07;9.87;;;;;;;;;;5057868;28;20226;-79
2022/01/29 05:01:22;;;;;;;19.23;8.87;;;;;;;;;;5057544;28;20230;-79
2022/01/29 05:03:48;;;;;;;20.50;9.80;;;;;;;;;;5041047;28;20175;-79
2022/01/29 05:06:14;;;;;;;19.07;9.90;;;;;;;;;;5040921;28;20265;-79
2022/01/29 05:08:40;;;;;;;19.20;10.40;;;;;;;;;;5040691;28;20187;-79
2022/01/29 05:11:08;;;;;;;19.43;10.10;;;;;;;;;;5039418;28;20187;-79
2022/01/29 05:13:36;;;;;;;17.43;10.33;;;;;;;;;;5057202;28;20184;-79
2022/01/29 05:16:28;;;;;;;18.73;10.20;;;;;;;;;;5041223;28;20205;-79
2022/01/29 05:27:07;;;;;;;21.00;10.13;;;;;;;;;;5075510;28;20233;-80
2022/01/29 05:29:33;;;;;;;19.77;10.37;;;;;;;;;;5040700;28;20183;-79
2022/01/29 05:32:00;;;;;;;18.40;10.13;;;;;;;;;;5040232;28;20236;-79
2022/01/29 05:34:26;;;;;;;21.23;11.23;;;;;;;;;;5056720;28;20179;-79
2022/01/29 05:36:53;;;;;;;20.00;10.60;;;;;;;;;;5040236;28;20207;-79
2022/01/29 05:39:20;;;;;;;18.73;10.23;;;;;;;;;;5040281;28;20804;-80
2022/01/29 05:41:46;;;;;;;20.10;10.40;;;;;;;;;;5057004;28;20639;-80
2022/01/29 05:44:12;;;;;;;19.87;11.27;;;;;;;;;;5040211;28;20175;-79
2022/01/29 05:46:39;;;;;;;18.17;10.23;;;;;;;;;;5056174;28;20222;-79
2022/01/29 05:49:05;;;;;;;22.97;11.50;;;;;;;;;;5056424;28;20186;-79
2022/01/29 05:51:31;;;;;;;21.70;10.57;;;;;;;;;;5056503;28;20656;-79
2022/01/29 05:54:01;;;;;;;19.57;10.77;;;;;;;;;;5056471;28;20209;-79
2022/01/29 05:56:27;;;;;;;19.80;10.90;;;;;;;;;;5056541;28;20199;-79
2022/01/29 05:58:54;;;;;;;19.03;10.50;;;;;;;;;;5056398;28;20199;-79
2022/01/29 06:01:20;;;;;;;18.47;10.60;;;;;;;;;;5056459;28;20521;-80
2022/01/29 06:03:46;;;;;;;17.50;9.87;;;;;;;;;;5056268;28;20546;-80
2022/01/29 06:06:12;;;;;;;20.53;10.60;;;;;;;;;;5056104;28;20591;-80
2022/01/29 06:08:38;;;;;;;21.77;10.37;;;;;;;;;;5056015;28;20203;-80
2022/01/29 06:11:04;;;;;;;17.63;10.10;;;;;;;;;;5039105;28;20186;-80
2022/01/29 06:13:30;;;;;;;19.23;9.90;;;;;;;;;;5055411;28;20312;-80
2022/01/29 06:15:56;;;;;;;19.23;9.33;;;;;;;;;;5055601;28;20658;-79
2022/01/29 06:18:23;;;;;;;18.37;10.13;;;;;;;;;;5038850;28;20199;-79
2022/01/29 06:20:50;;;;;;;16.37;9.63;;;;;;;;;;5055022;28;20222;-78
2022/01/29 06:23:18;;;;;;;17.80;9.83;;;;;;;;;;5055166;28;20182;-78
2022/01/29 06:25:44;;;;;;;21.03;9.97;;;;;;;;;;5039247;28;20200;-79
2022/01/29 06:28:10;;;;;;;18.10;10.13;;;;;;;;;;5055274;28;20187;-78
2022/01/29 06:30:36;;;;;;;17.33;9.27;;;;;;;;;;5073181;28;20649;-78
2022/01/29 06:33:09;;;;;;;15.87;9.33;;;;;;;;;;5055227;28;20182;-78
2022/01/29 06:35:36;;;;;;;17.87;9.97;;;;;;;;;;5038560;28;20182;-78
2022/01/29 06:38:03;;;;;;;17.67;9.77;;;;;;;;;;5055962;28;20681;-79
2022/01/29 06:40:29;;;;;;;19.33;10.20;;;;;;;;;;5035154;28;20180;-77
2022/01/29 06:42:56;;;;;;;19.53;9.40;;;;;;;;;;5038751;28;20193;-78
2022/01/29 06:45:22;;;;;;;17.30;9.67;;;;;;;;;;5038572;28;20671;-76
2022/01/29 06:47:48;;;;;;;16.93;9.00;;;;;;;;;;5038528;28;20220;-76
2022/01/29 06:50:14;;;;;;;16.30;9.33;;;;;;;;;;5038428;28;20197;-77
2022/01/29 06:52:40;;;;;;;16.73;9.40;;;;;;;;;;5038085;28;20269;-77
2022/01/29 06:55:06;;;;;;;16.93;10.13;;;;;;;;;;5072028;28;20266;-77
2022/01/29 06:57:32;;;;;;;17.53;9.37;;;;;;;;;;5038128;28;20227;-77
2022/01/29 06:59:58;;;;;;;19.63;10.10;;;;;;;;;;5054488;28;20677;-77
2022/01/29 07:02:26;;;;;;;16.37;8.67;;;;;;;;;;5055000;28;20288;-79
2022/01/29 07:04:52;;;;;;;21.37;10.13;;;;;;;;;;5038159;28;20191;-78
2022/01/29 07:07:18;;;;;;;19.90;9.77;;;;;;;;;;5037611;28;20210;-78
2022/01/29 07:09:44;;;;;;;18.63;10.00;;;;;;;;;;5054624;28;20257;-78
2022/01/29 07:12:11;;;;;;;15.57;9.30;;;;;;;;;;5038822;28;20186;-78
2022/01/29 07:14:39;;;;;;;15.13;8.73;;;;;;;;;;5055320;28;20214;-78
2022/01/29 07:17:12;;;;;;;12.90;8.30;;;;;;;;;;5072475;28;20665;-78
2022/01/29 07:19:39;;;;;;;16.10;8.43;;;;;;;;;;5037959;28;20237;-78
2022/01/29 07:22:05;;;;;;;14.63;8.17;;;;;;;;;;5037931;28;20201;-78
2022/01/29 07:24:32;;;;;;;16.17;8.27;;;;;;;;;;5054403;28;20175;-78
2022/01/29 07:26:58;;;;;;;18.07;9.07;;;;;;;;;;5054290;28;20193;-78
2022/01/29 07:29:24;;;;;;;14.90;8.27;;;;;;;;;;5037797;28;20209;-78
2022/01/29 07:31:50;;;;;;;16.27;8.40;;;;;;;;;;5038140;28;20183;-78
2022/01/29 07:34:17;;;;;;;12.23;7.57;;;;;;;;;;5036937;28;20188;-78
2022/01/29 07:36:43;;;;;;;12.97;7.37;;;;;;;;;;5054043;28;20227;-78
2022/01/29 07:39:09;;;;;;;13.03;7.40;;;;;;;;;;5037675;28;20206;-78
2022/01/29 07:41:35;;;;;;;12.27;7.37;;;;;;;;;;5054104;28;20262;-78
2022/01/29 07:44:01;;;;;;;11.63;6.83;;;;;;;;;;5037718;28;20217;-78
2022/01/29 07:46:27;;;;;;;13.40;7.60;;;;;;;;;;5054231;28;20616;-78
2022/01/29 07:48:53;;;;;;;13.03;7.47;;;;;;;;;;5037855;28;20276;-78
2022/01/29 07:51:19;;;;;;;10.67;6.43;;;;;;;;;;5037769;28;20187;-78
2022/01/29 07:53:45;;;;;;;11.57;6.83;;;;;;;;;;5054206;28;20174;-78
2022/01/29 07:56:11;;;;;;;12.63;6.90;;;;;;;;;;5054164;28;20206;-78
2022/01/29 07:58:37;;;;;;;13.17;7.20;;;;;;;;;;5037948;28;20214;-78
2022/01/29 08:01:03;;;;;;;12.27;6.83;;;;;;;;;;5054335;28;20176;-78
2022/01/29 08:03:29;;;;;;;12.03;6.83;;;;;;;;;;5054159;28;20178;-78
2022/01/29 08:05:56;;;;;;;12.53;6.70;;;;;;;;;;5076531;22;20211;-81
2022/01/29 08:08:22;;;;;;;12.63;6.47;;;;;;;;;;5054014;28;20183;-78
2022/01/29 08:10:49;;;;;;;11.60;6.47;;;;;;;;;;5037417;28;20193;-79
2022/01/29 08:13:14;;;;;;;12.03;6.23;;;;;;;;;;5053767;28;20182;-79
2022/01/29 08:15:40;;;;;;;11.43;6.53;;;;;;;;;;5053948;28;20184;-80
2022/01/29 08:18:06;;;;;;;12.70;6.97;;;;;;;;;;5034075;28;20212;-78
2022/01/29 08:20:33;;;;;;;10.67;6.87;;;;;;;;;;5033798;28;20184;-78
2022/01/29 08:22:59;;;;;;;10.10;6.27;;;;;;;;;;5033810;28;20187;-78
2022/01/29 08:25:25;;;;;;;9.53;6.27;;;;;;;;;;5033845;28;20194;-78
2022/01/29 08:27:51;;;;;;;9.77;5.97;;;;;;;;;;5033950;28;20204;-79
2022/01/29 08:30:17;;;;;;;9.17;5.23;;;;;;;;;;5033689;28;20533;-79
2022/01/29 08:32:43;;;;;;;8.80;5.47;;;;;;;;;;5033759;28;20214;-79
2022/01/29 08:35:14;;;;;;;9.03;5.20;;;;;;;;;;5033433;28;20183;-79
2022/01/29 08:37:40;;;;;;;13.03;7.60;;;;;;;;;;5032750;28;20221;-78
2022/01/29 08:40:07;;;;;;;12.43;7.00;;;;;;;;;;5046140;28;20207;-80
2022/01/29 08:42:33;;;;;;;11.37;6.37;;;;;;;;;;5071016;28;20180;-80
2022/01/29 08:45:01;;;;;;;10.13;6.30;;;;;;;;;;5072172;28;20180;-80
2022/01/29 08:47:27;;;;;;;10.77;6.23;;;;;;;;;;5074370;28;20202;-80
2022/01/29 08:49:53;;;;;;;10.37;6.70;;;;;;;;;;5074086;28;20183;-80
2022/01/29 08:52:19;;;;;;;11.07;5.97;;;;;;;;;;5074154;28;20180;-80
2022/01/29 08:54:45;;;;;;;11.67;6.73;;;;;;;;;;5057259;28;20192;-80
2022/01/29 08:57:11;;;;;;;9.97;6.17;;;;;;;;;;5057709;28;20300;-80
2022/01/29 08:59:37;;;;;;;14.27;7.77;;;;;;;;;;5057533;28;20238;-80
2022/01/29 09:02:03;;;;;;;10.93;6.67;;;;;;;;;;5057429;28;20248;-79
2022/01/29 09:04:29;;;;;;;11.07;6.20;;;;;;;;;;5073569;28;20179;-80
2022/01/29 09:06:55;;;;;;;10.03;6.30;;;;;;;;;;5073798;28;20210;-80
2022/01/29 09:09:25;;;;;;;11.23;6.53;;;;;;;;;;5057143;28;20179;-80
2022/01/29 09:11:51;;;;;;;8.40;5.43;;;;;;;;;;5073818;28;20224;-78
2022/01/29 09:14:18;;;;;;;9.70;5.33;;;;;;;;;;5056846;28;20215;-79
2022/01/29 09:16:44;;;;;;;9.63;5.77;;;;;;;;;;5056978;28;20221;-80
2022/01/29 09:19:10;;;;;;;8.03;5.57;;;;;;;;;;5056948;28;20565;-80
2022/01/29 09:21:36;;;;;;;8.63;5.33;;;;;;;;;;5056998;28;20552;-80
2022/01/29 09:24:02;;;;;;;8.53;5.60;;;;;;;;;;5073590;28;20624;-79
2022/01/29 09:26:28;;;;;;;7.27;4.97;;;;;;;;;;5073364;28;20189;-79
2022/01/29 09:28:54;;;;;;;8.03;5.10;;;;;;;;;;5056741;28;20277;-80
2022/01/29 09:31:20;;;;;;;9.83;4.53;;;;;;;;;;5056874;28;20218;-80
2022/01/29 09:33:46;;;;;;;8.77;5.70;;;;;;;;;;5056573;28;20277;-80
2022/01/29 09:36:12;;;;;;;8.00;4.80;;;;;;;;;;5056576;28;20217;-80
2022/01/29 09:38:38;;;;;;;7.80;4.97;;;;;;;;;;5056706;28;20248;-80
2022/01/29 09:41:04;;;;;;;9.33;4.83;;;;;;;;;;5056686;28;20642;-80
2022/01/29 09:43:32;;;;;;;13.30;8.43;;;;;;;;;;5056559;28;20184;-80
2022/01/29 09:45:58;;;;;;;13.27;7.80;;;;;;;;;;5073102;28;20180;-80
2022/01/29 09:48:25;;;;;;;13.27;8.03;;;;;;;;;;5072972;28;20191;-79
2022/01/29 09:50:52;;;;;;;14.87;8.33;;;;;;;;;;5073892;28;20179;-79
2022/01/29 09:53:19;;;;;;;18.40;10.30;;;;;;;;;;5073655;28;20184;-79
2022/01/29 09:56:03;;;;;;;16.60;9.23;;;;;;;;;;5056139;28;20209;-80
2022/01/29 09:58:29;;;;;;;12.87;8.00;;;;;;;;;;5073185;28;20213;-79
2022/01/29 10:00:56;;;;;;;11.40;7.63;;;;;;;;;;5056935;28;20181;-80
2022/01/29 10:03:22;;;;;;;14.83;9.33;;;;;;;;;;5056692;28;20179;-79
2022/01/29 10:05:50;;;;;;;13.30;8.63;;;;;;;;;;5056617;28;20616;-80
2022/01/29 10:08:16;;;;;;;13.03;8.47;;;;;;;;;;5056766;28;20184;-79
2022/01/29 10:10:42;;;;;;;10.80;7.27;;;;;;;;;;5056665;28;20188;-79
2022/01/29 10:13:28;;;;;;;9.33;6.50;;;;;;;;;;5073268;28;20175;-80
2022/01/29 10:16:04;;;;;;;9.83;6.60;;;;;;;;;;5056036;28;20187;-79
2022/01/29 10:18:30;;;;;;;11.33;6.47;;;;;;;;;;5072675;28;20610;-79
2022/01/29 10:21:10;;;;;;;8.87;5.93;;;;;;;;;;5051834;28;20204;-80
2022/01/29 10:23:36;;;;;;;10.73;6.67;;;;;;;;;;5034577;28;20177;-79
2022/01/29 10:26:04;;;;;;;10.80;6.93;;;;;;;;;;5016416;28;20237;-80
2022/01/29 10:28:30;;;;;;;11.57;6.73;;;;;;;;;;5000341;28;20621;-79
2022/01/29 10:30:57;;;;;;;9.83;7.23;;;;;;;;;;4999994;28;20225;-80
2022/01/29 10:33:25;;;;;;;11.13;6.80;;;;;;;;;;4999669;28;20180;-78
2022/01/29 10:36:05;;;;;;;14.03;8.13;;;;;;;;;;5016085;28;20544;-81
2022/01/29 10:38:40;;;;;;;12.27;7.40;;;;;;;;;;5000106;28;20220;-81
2022/01/29 10:41:12;;;;;;;12.87;7.47;;;;;;;;;;5016052;28;20187;-80
2022/01/29 10:43:54;;;;;;;11.77;7.23;;;;;;;;;;5016074;28;20636;-83
2022/01/29 10:46:24;;;;;;;12.00;7.90;;;;;;;;;;4999797;28;20568;-80
2022/01/29 10:48:50;;;;;;;13.30;7.83;;;;;;;;;;4999915;28;20193;-82
2022/01/29 10:51:16;;;;;;;11.47;7.40;;;;;;;;;;4999472;28;20191;-82
2022/01/29 10:53:43;;;;;;;11.97;7.40;;;;;;;;;;4999003;28;20192;-80
2022/01/29 10:56:09;;;;;;;12.13;7.73;;;;;;;;;;4999037;28;20205;-81
2022/01/29 10:58:42;;;;;;;12.40;7.13;;;;;;;;;;5015413;28;20208;-81
2022/01/29 11:01:14;;;;;;;13.57;6.93;;;;;;;;;;5015279;28;20173;-86
2022/01/29 11:03:41;;;;;;;12.87;7.73;;;;;;;;;;5014740;28;20181;-81
2022/01/29 11:06:09;;;;;;;10.80;6.43;;;;;;;;;;5015086;28;20213;-82
2022/01/29 11:08:35;;;;;;;12.10;7.20;;;;;;;;;;5015183;28;20180;-81
2022/01/29 11:11:02;;;;;;;11.37;7.23;;;;;;;;;;5015027;28;20177;-82
2022/01/29 11:13:28;;;;;;;10.77;7.20;;;;;;;;;;4998638;28;20188;-82
2022/01/29 11:15:55;;;;;;;12.37;7.10;;;;;;;;;;5015000;28;20228;-81
2022/01/29 11:18:25;;;;;;;11.77;6.47;;;;;;;;;;5014658;28;20205;-80
2022/01/29 11:20:51;;;;;;;10.83;6.50;;;;;;;;;;5014497;28;20624;-77
2022/01/29 11:23:18;;;;;;;10.83;6.47;;;;;;;;;;4998094;28;20181;-77
2022/01/29 11:25:44;;;;;;;9.67;6.27;;;;;;;;;;4998311;28;20177;-86
2022/01/29 11:28:12;;;;;;;9.73;6.57;;;;;;;;;;4998878;28;20193;-80
2022/01/29 11:30:38;;;;;;;10.77;7.30;;;;;;;;;;4999104;28;20189;-81
2022/01/29 11:33:04;;;;;;;9.43;5.93;;;;;;;;;;4998276;28;20185;-81
2022/01/29 11:35:31;;;;;;;9.53;6.13;;;;;;;;;;4998436;28;20185;-78
2022/01/29 11:38:03;;;;;;;9.50;6.20;;;;;;;;;;4998634;28;20198;-79
2022/01/29 11:40:32;;;;;;;11.47;5.80;;;;;;;;;;5014651;28;20693;-77
2022/01/29 11:43:28;;;;;;;8.43;5.90;;;;;;;;;;5014663;28;20181;-79
2022/01/29 11:46:04;;;;;;;8.70;5.57;;;;;;;;;;4997930;28;20655;-79
2022/01/29 11:48:31;;;;;;;9.10;5.40;;;;;;;;;;5014648;28;20650;-79
2022/01/29 11:51:02;;;;;;;6.73;5.40;;;;;;;;;;5014805;28;20181;-79
2022/01/29 11:53:49;;;;;;;7.47;5.13;;;;;;;;;;5014427;28;20186;-79
2022/01/29 11:56:27;;;;;;;7.37;5.17;;;;;;;;;;5014590;28;20235;-79
2022/01/29 11:59:12;;;;;;;7.47;5.27;;;;;;;;;;5014639;28;20216;-80
2022/01/29 12:01:38;;;;;;;6.87;5.00;;;;;;;;;;5014307;28;20698;-78
2022/01/29 12:04:05;;;;;;;9.43;5.80;;;;;;;;;;4997836;28;20188;-79
2022/01/29 12:06:34;;;;;;;8.90;5.50;;;;;;;;;;4998106;28;20222;-76
2022/01/29 13:48:07;;;;;;;3.37;3.00;;;;;;;;;;5799009;22;20222;-81
2022/01/29 13:50:39;;;;;;;4.00;3.43;;;;;;;;;;5015570;28;20194;-81
2022/01/29 13:53:07;;;;;;;4.57;3.73;;;;;;;;;;5016441;28;20667;-81
2022/01/29 13:55:34;;;;;;;4.13;3.57;;;;;;;;;;5017193;28;20178;-82
2022/01/29 13:58:08;;;;;;;5.03;3.83;;;;;;;;;;5023625;28;20202;-81
2022/01/29 14:00:55;;;;;;;4.17;3.47;;;;;;;;;;5055533;22;20220;-77
2022/01/29 14:06:30;;;;;;;3.17;2.83;;;;;;;;;;5015759;28;20216;-77
2022/01/29 14:09:21;;;;;;;5.30;3.10;;;;;;;;;;4997161;28;20181;-77
2022/01/29 14:11:54;;;;;;;3.13;2.73;;;;;;;;;;5013710;28;20202;-77
2022/01/29 14:14:21;;;;;;;5.17;2.80;;;;;;;;;;4997691;28;20189;-78
2022/01/29 14:16:47;;;;;;;4.17;3.63;;;;;;;;;;5001561;28;20285;-77
2022/01/29 14:19:16;;;;;;;3.30;2.93;;;;;;;;;;5028703;28;20299;-77
2022/01/29 14:21:42;;;;;;;3.93;2.90;;;;;;;;;;5010870;28;20237;-77
2022/01/29 14:24:08;;;;;;;3.50;3.10;;;;;;;;;;4997634;28;20209;-77
2022/01/29 14:26:34;;;;;;;3.10;2.80;;;;;;;;;;4997966;28;20170;-77
2022/01/29 14:29:00;;;;;;;2.90;2.60;;;;;;;;;;4997435;28;20178;-77
2022/01/29 14:31:27;;;;;;;3.60;2.73;;;;;;;;;;4997947;28;20208;-77
2022/01/29 14:33:52;;;;;;;3.30;2.97;;;;;;;;;;4998051;28;20182;-77
2022/01/29 14:36:18;;;;;;;2.80;2.60;;;;;;;;;;4997556;28;20297;-77
2022/01/29 14:38:45;;;;;;;3.60;2.93;;;;;;;;;;4997257;28;20209;-77
2022/01/29 14:41:10;;;;;;;3.47;3.03;;;;;;;;;;4997529;28;20198;-80
2022/01/29 14:43:36;;;;;;;3.07;2.77;;;;;;;;;;4997177;28;20178;-78
2022/01/29 14:46:04;;;;;;;3.03;2.70;;;;;;;;;;4997629;28;20550;-77
2022/01/29 14:48:30;;;;;;;2.80;2.60;;;;;;;;;;4997490;28;20190;-77
2022/01/29 14:50:56;;;;;;;3.80;3.40;;;;;;;;;;4997575;28;20209;-77
2022/01/29 14:53:23;;;;;;;3.87;3.37;;;;;;;;;;4999624;28;20193;-77
2022/01/29 14:55:50;;;;;;;2.97;2.60;;;;;;;;;;4997123;28;20558;-77
2022/01/29 14:58:16;;;;;;;3.80;3.30;;;;;;;;;;4997461;28;20185;-77
2022/01/29 15:00:42;;;;;;;4.20;3.50;;;;;;;;;;4997382;28;20214;-78
2022/01/29 15:03:08;;;;;;;3.07;2.50;;;;;;;;;;5008667;28;20278;-77
2022/01/29 15:05:34;;;;;;;3.03;2.73;;;;;;;;;;5013895;28;20215;-77
2022/01/29 15:08:00;;;;;;;2.93;2.60;;;;;;;;;;5012981;28;20217;-77
2022/01/29 15:10:27;;;;;;;3.77;2.67;;;;;;;;;;5013545;28;20179;-77
2022/01/29 15:12:53;;;;;;;3.27;2.97;;;;;;;;;;5014350;28;20179;-77
2022/01/29 15:15:19;;;;;;;3.70;2.77;;;;;;;;;;5013718;28;20178;-77
2022/01/29 15:17:45;;;;;;;2.67;2.33;;;;;;;;;;5013561;28;20185;-77
2022/01/29 15:20:11;;;;;;;4.07;3.00;;;;;;;;;;5016494;28;20232;-77
2022/01/29 15:22:37;;;;;;;3.40;2.97;;;;;;;;;;5016680;28;20542;-77
2022/01/29 15:25:04;;;;;;;3.40;3.10;;;;;;;;;;5033438;28;20231;-77
2022/01/29 15:27:30;;;;;;;3.73;3.30;;;;;;;;;;5016166;28;20174;-77
2022/01/29 15:29:56;;;;;;;3.80;3.27;;;;;;;;;;5017050;28;20182;-77
2022/01/29 15:32:22;;;;;;;3.93;3.37;;;;;;;;;;5016949;28;20296;-77
2022/01/29 15:34:48;;;;;;;3.83;3.10;;;;;;;;;;5016730;28;20186;-77
2022/01/29 15:37:14;;;;;;;4.07;3.40;;;;;;;;;;5016280;28;20710;-77
2022/01/29 15:39:40;;;;;;;4.10;3.70;;;;;;;;;;5016705;28;20206;-77
2022/01/29 15:42:06;;;;;;;4.27;3.50;;;;;;;;;;5016427;28;20220;-77
2022/01/29 15:44:32;;;;;;;4.03;3.67;;;;;;;;;;5013698;28;20186;-77
2022/01/29 15:46:58;;;;;;;4.13;3.40;;;;;;;;;;5016287;28;20200;-77
2022/01/29 15:49:24;;;;;;;9.20;7.57;;;;;;;;;;5016483;28;20225;-78
2022/01/29 15:51:50;;;;;;;5.27;3.87;;;;;;;;;;5006553;28;20289;-77
2022/01/29 15:54:18;;;;;;;5.53;4.97;;;;;;;;;;4981216;28;20193;-77
2022/01/29 15:56:44;;;;;;;4.87;4.27;;;;;;;;;;4984406;28;20175;-77
2022/01/29 15:59:10;;;;;;;5.30;4.40;;;;;;;;;;4984490;28;20205;-81
2022/01/29 16:01:36;;;;;;;5.63;4.20;;;;;;;;;;4983608;28;20245;-77
2022/01/29 16:04:02;;;;;;;4.80;4.00;;;;;;;;;;5016730;28;20182;-79
2022/01/29 16:06:28;;;;;;;4.90;4.20;;;;;;;;;;4999333;28;20178;-79
2022/01/29 16:08:54;;;;;;;5.50;4.50;;;;;;;;;;4982750;28;20278;-80
2022/01/29 16:11:20;;;;;;;5.03;4.40;;;;;;;;;;4999315;28;20203;-80
2022/01/29 16:13:46;;;;;;;6.20;5.00;;;;;;;;;;4983479;28;20186;-83
2022/01/29 16:16:12;;;;;;;5.20;4.40;;;;;;;;;;4999432;28;20183;-81
2022/01/29 16:18:38;;;;;;;5.43;4.57;;;;;;;;;;4982764;28;20306;-79
2022/01/29 16:21:05;;;;;;;5.70;5.10;;;;;;;;;;4982765;28;20199;-80